createdAt,value
2022-12-14T00:01:26.075Z,99561.16
2022-12-14T00:03:52.996Z,99556.91
2022-12-14T00:06:22.256Z,99558.44
2022-12-14T00:08:50.020Z,99560.56
2022-12-14T00:11:16.908Z,99564.06
2022-12-14T00:13:43.847Z,99567.50
2022-12-14T00:16:17.301Z,99562.88
2022-12-14T00:18:44.693Z,99560.44
2022-12-14T00:21:13.737Z,99554.72
2022-12-14T00:23:42.033Z,99551.16
2022-12-14T00:26:19.595Z,99547.53
2022-12-14T00:28:47.498Z,99545.97
2022-12-14T00:31:14.473Z,99544.50
2022-12-14T00:33:42.088Z,99548.56
2022-12-14T00:36:10.172Z,99544.97
2022-12-14T00:38:37.149Z,99546.81
2022-12-14T00:41:03.779Z,99553.50
2022-12-14T00:43:30.309Z,99546.06
2022-12-14T00:45:56.818Z,99546.66
2022-12-14T00:48:24.736Z,99548.06
2022-12-14T00:50:53.491Z,99549.66
2022-12-14T00:53:20.279Z,99550.44
2022-12-14T00:55:49.256Z,99545.38
2022-12-14T00:58:18.774Z,99548.03
2022-12-14T01:00:45.321Z,99546.16
2022-12-14T01:03:12.653Z,99551.44
2022-12-14T01:05:39.386Z,99549.44
2022-12-14T01:08:06.867Z,99552.13
2022-12-14T01:10:33.744Z,99554.59
2022-12-14T01:13:00.357Z,99552.03
2022-12-14T01:15:26.847Z,99546.84
2022-12-14T01:17:53.355Z,99552.78
2022-12-14T01:20:20.013Z,99550.09
2022-12-14T01:22:46.454Z,99545.72
2022-12-14T01:25:12.963Z,99548.19
2022-12-14T01:27:39.393Z,99542.88
2022-12-14T01:30:06.314Z,99551.56
2022-12-14T01:32:35.198Z,99541.19
2022-12-14T01:35:01.649Z,99542.97
2022-12-14T01:37:28.971Z,99541.19
2022-12-14T01:39:55.878Z,99542.19
2022-12-14T01:42:22.564Z,99540.19
2022-12-14T01:44:53.319Z,99544.66
2022-12-14T01:47:22.219Z,99542.19
2022-12-14T01:49:57.376Z,99544.50
2022-12-14T01:52:28.867Z,99545.22
2022-12-14T01:55:00.731Z,99549.63
2022-12-14T01:57:56.713Z,99546.66
2022-12-14T02:00:23.320Z,99539.59
2022-12-14T02:02:57.081Z,99539.50
2022-12-14T02:05:25.100Z,99536.19
2022-12-14T02:07:53.166Z,99537.78
2022-12-14T02:10:20.910Z,99540.44
2022-12-14T02:12:52.485Z,99536.91
2022-12-14T02:15:19.176Z,99529.16
2022-12-14T02:17:46.380Z,99536.72
2022-12-14T02:20:14.154Z,99528.53
2022-12-14T02:23:19.475Z,99536.56
2022-12-14T02:26:20.423Z,99534.00
2022-12-14T02:29:26.463Z,99535.91
2022-12-14T02:32:29.574Z,99539.41
2022-12-14T02:35:00.091Z,99532.53
2022-12-14T02:37:49.271Z,99531.75
2022-12-14T02:40:24.823Z,99536.03
2022-12-14T02:43:26.708Z,99536.91
2022-12-14T02:46:19.091Z,99546.44
2022-12-14T02:48:49.818Z,99546.34
2022-12-14T02:51:37.675Z,99540.03
2022-12-14T02:54:11.239Z,99538.88
2022-12-14T02:56:44.114Z,99540.34
2022-12-14T02:59:10.730Z,99541.50
2022-12-14T03:01:39.027Z,99536.50
2022-12-14T03:04:06.610Z,99544.88
2022-12-14T03:06:35.943Z,99538.00
2022-12-14T03:09:06.887Z,99544.78
2022-12-14T03:11:41.117Z,99548.88
2022-12-14T03:14:15.788Z,99537.03
2022-12-14T03:16:44.944Z,99537.03
2022-12-14T03:19:11.421Z,99535.69
2022-12-14T03:21:40.725Z,99543.19
2022-12-14T03:24:11.965Z,99547.31
2022-12-14T03:26:47.690Z,99543.19
2022-12-14T03:29:28.787Z,99544.78
2022-12-14T03:31:58.045Z,99545.81
2022-12-14T03:34:29.559Z,99550.22
2022-12-14T03:37:04.500Z,99544.97
2022-12-14T03:39:33.505Z,99548.88
2022-12-14T03:42:04.752Z,99549.56
2022-12-14T03:44:49.076Z,99546.16
2022-12-14T03:47:18.545Z,99541.13
2022-12-14T04:04:05.933Z,99551.38
2022-12-14T04:06:55.384Z,99545.59
2022-12-14T04:09:38.938Z,99548.88
2022-12-14T04:12:35.958Z,99555.94
2022-12-14T04:15:43.751Z,99547.63
2022-12-14T04:18:32.473Z,99549.25
2022-12-14T04:21:09.442Z,99539.34
2022-12-14T04:23:58.977Z,99537.78
2022-12-14T04:26:29.986Z,99533.88
2022-12-14T04:32:05.453Z,99546.06
2022-12-14T04:34:33.535Z,99542.25
2022-12-14T04:37:03.347Z,99541.47
2022-12-14T04:39:44.216Z,99540.91
2022-12-14T04:42:11.668Z,99538.63
2022-12-14T04:44:41.606Z,99537.72
2022-12-14T04:47:10.549Z,99543.09
2022-12-14T04:49:49.748Z,99536.22
2022-12-14T04:52:18.032Z,99543.41
2022-12-14T04:54:56.191Z,99539.72
2022-12-14T04:57:45.269Z,99533.38
2022-12-14T05:00:12.210Z,99532.69
2022-12-14T05:03:05.927Z,99533.94
2022-12-14T05:05:57.074Z,99525.94
2022-12-14T05:08:57.465Z,99524.97
2022-12-14T05:14:32.731Z,99512.94
2022-12-14T05:17:03.426Z,99511.25
2022-12-14T05:19:33.013Z,99515.00
2022-12-14T05:22:06.502Z,99510.75
2022-12-14T05:24:33.058Z,99518.34
2022-12-14T05:26:59.499Z,99514.41
2022-12-14T05:29:26.046Z,99514.50
2022-12-14T05:31:52.562Z,99519.00
2022-12-14T05:34:18.993Z,99520.88
2022-12-14T05:36:45.537Z,99516.22
2022-12-14T05:39:12.595Z,99520.91
2022-12-14T05:41:39.046Z,99522.03
2022-12-14T05:44:05.631Z,99529.31
2022-12-14T05:46:32.054Z,99526.63
2022-12-14T05:48:58.510Z,99534.22
2022-12-14T05:51:25.718Z,99527.97
2022-12-14T05:53:52.147Z,99525.78
2022-12-14T05:56:18.590Z,99533.88
2022-12-14T05:58:49.589Z,99526.34
2022-12-14T06:01:19.331Z,99528.72
2022-12-14T06:03:46.259Z,99529.84
2022-12-14T06:06:13.453Z,99537.47
2022-12-14T06:08:44.995Z,99531.38
2022-12-14T06:11:23.246Z,99541.78
2022-12-14T06:13:49.835Z,99541.69
2022-12-14T06:16:22.087Z,99543.25
2022-12-14T06:18:56.723Z,99547.53
2022-12-14T06:21:27.681Z,99548.91
2022-12-14T06:23:54.795Z,99545.50
2022-12-14T06:26:21.880Z,99536.53
2022-12-14T06:28:48.437Z,99535.72
2022-12-14T06:31:20.722Z,99534.88
2022-12-14T06:33:47.762Z,99540.19
2022-12-14T06:36:23.637Z,99543.44
2022-12-14T06:38:54.017Z,99545.94
2022-12-14T06:41:21.237Z,99543.25
2022-12-14T06:43:49.344Z,99547.19
2022-12-14T06:46:20.853Z,99548.91
2022-12-14T06:48:54.891Z,99550.66
2022-12-14T06:51:22.822Z,99549.88
2022-12-14T06:53:53.088Z,99548.28
2022-12-14T06:56:20.724Z,99552.56
2022-12-14T06:58:47.672Z,99550.03
2022-12-14T07:01:20.977Z,99542.47
2022-12-14T07:03:59.323Z,99548.97
2022-12-14T07:06:28.969Z,99550.28
2022-12-14T07:08:57.373Z,99552.66
2022-12-14T07:11:26.328Z,99551.66
2022-12-14T07:13:53.735Z,99545.81
2022-12-14T07:16:22.966Z,99552.53
2022-12-14T07:18:49.753Z,99556.16
2022-12-14T07:21:18.584Z,99560.34
2022-12-14T07:23:47.292Z,99561.06
2022-12-14T07:26:19.945Z,99566.84
2022-12-14T07:28:46.624Z,99559.94
2022-12-14T07:31:18.735Z,99563.34
2022-12-14T07:33:45.893Z,99556.47
2022-12-14T07:36:15.805Z,99566.78
2022-12-14T07:38:43.480Z,99568.44
2022-12-14T07:41:12.279Z,99568.16
2022-12-14T07:43:39.471Z,99562.19
2022-12-14T07:46:13.965Z,99564.88
2022-12-14T07:48:47.984Z,99562.53
2022-12-14T07:51:17.293Z,99554.28
2022-12-14T07:53:44.337Z,99555.66
2022-12-14T07:56:13.268Z,99560.94
2022-12-14T07:58:39.839Z,99550.53
2022-12-14T08:01:30.612Z,99552.50
2022-12-14T08:04:05.607Z,99556.69
2022-12-14T08:06:32.727Z,99553.19
2022-12-14T08:08:59.625Z,99563.53
2022-12-14T08:11:29.965Z,99566.06
2022-12-14T08:13:58.352Z,99561.59
2022-12-14T08:16:25.823Z,99556.66
2022-12-14T08:18:53.564Z,99558.19
2022-12-14T08:21:22.279Z,99565.50
2022-12-14T08:23:50.201Z,99554.72
2022-12-14T08:26:17.608Z,99552.72
2022-12-14T08:28:44.602Z,99548.22
2022-12-14T08:31:18.900Z,99556.75
2022-12-14T08:34:16.436Z,99554.88
2022-12-14T08:36:43.037Z,99557.53
2022-12-14T08:39:10.238Z,99554.94
2022-12-14T08:41:36.962Z,99560.59
2022-12-14T08:44:03.921Z,99562.91
2022-12-14T08:46:32.849Z,99561.88
2022-12-14T08:48:59.935Z,99563.13
2022-12-14T08:51:27.771Z,99560.25
2022-12-14T08:53:54.687Z,99558.03
2022-12-14T08:56:26.655Z,99560.69
2022-12-14T08:58:53.575Z,99585.25
2022-12-14T09:01:29.961Z,99605.19
2022-12-14T09:04:02.327Z,99623.41
2022-12-14T09:06:28.828Z,99631.72
2022-12-14T09:08:55.822Z,99626.00
2022-12-14T09:11:22.812Z,99640.31
2022-12-14T09:13:53.683Z,99639.59
2022-12-14T09:16:21.863Z,99641.81
2022-12-14T09:18:49.096Z,99641.09
2022-12-14T09:21:16.518Z,99640.94
2022-12-14T09:23:43.448Z,99638.56
2022-12-14T09:26:20.372Z,99638.91
2022-12-14T09:28:50.773Z,99629.63
2022-12-14T09:31:19.982Z,99636.91
2022-12-14T09:33:46.656Z,99634.91
2022-12-14T09:36:15.530Z,99627.56
2022-12-14T09:38:50.635Z,99619.44
2022-12-14T09:41:19.851Z,99612.72
2022-12-14T09:43:56.922Z,99622.94
2022-12-14T09:46:49.004Z,99624.66
2022-12-14T09:49:41.544Z,99624.81
2022-12-14T09:52:16.256Z,99617.81
2022-12-14T09:54:44.276Z,99614.69
2022-12-14T09:57:15.385Z,99607.84
2022-12-14T09:59:41.889Z,99612.91
2022-12-14T10:02:33.372Z,99594.75
2022-12-14T10:05:09.244Z,99581.44
2022-12-14T10:07:45.545Z,99595.13
2022-12-14T10:10:43.451Z,99603.03
2022-12-14T10:13:28.059Z,99602.13
2022-12-14T10:16:12.965Z,99591.78
2022-12-14T10:18:59.903Z,99579.38
2022-12-14T10:21:40.679Z,99579.06
2022-12-14T10:24:14.627Z,99560.56
2022-12-14T10:26:48.377Z,99560.31
2022-12-14T10:29:27.389Z,99564.41
2022-12-14T10:32:21.339Z,99557.88
2022-12-14T10:34:48.512Z,99546.22
2022-12-14T10:37:27.242Z,99537.22
2022-12-14T10:40:03.532Z,99542.13
2022-12-14T10:43:15.747Z,99526.19
2022-12-14T10:46:14.773Z,99526.94
2022-12-14T10:49:01.258Z,99506.91
2022-12-14T10:51:33.971Z,99507.94
2022-12-14T10:54:33.496Z,99510.66
2022-12-14T10:57:00.486Z,99503.53
2022-12-14T10:59:44.706Z,99509.88
2022-12-14T11:02:28.284Z,99479.59
2022-12-14T11:04:57.559Z,99463.44
2022-12-14T11:07:34.860Z,99431.56
2022-12-14T11:10:29.642Z,99415.84
2022-12-14T11:13:06.268Z,99404.78
2022-12-14T11:15:38.297Z,99395.38
2022-12-14T11:18:16.690Z,99398.72
2022-12-14T11:20:58.344Z,99386.34
2022-12-14T11:23:39.190Z,99388.41
2022-12-14T11:26:15.363Z,99382.69
2022-12-14T11:28:53.770Z,99374.94
2022-12-14T11:31:20.627Z,99365.53
2022-12-14T11:33:52.289Z,99358.81
2022-12-14T11:36:37.805Z,99351.59
2022-12-14T11:39:13.118Z,99349.41
2022-12-14T11:42:00.865Z,99346.56
2022-12-14T11:44:30.463Z,99347.75
2022-12-14T11:47:00.345Z,99335.69
2022-12-14T11:49:35.013Z,99331.13
2022-12-14T11:52:04.386Z,99341.19
2022-12-14T11:54:32.252Z,99330.53
2022-12-14T11:57:05.560Z,99331.69
2022-12-14T11:59:43.165Z,99330.38
2022-12-14T12:02:30.770Z,99325.91
2022-12-14T12:05:05.292Z,99322.00
2022-12-14T12:07:34.812Z,99319.97
2022-12-14T12:10:13.316Z,99309.91
2022-12-14T12:12:54.199Z,99308.06
2022-12-14T12:15:27.673Z,99302.22
2022-12-14T12:18:00.669Z,99294.97
2022-12-14T12:20:34.478Z,99295.88
2022-12-14T12:23:08.094Z,99294.63
2022-12-14T12:25:37.417Z,99297.22
2022-12-14T12:28:17.330Z,99283.72
2022-12-14T12:30:48.928Z,99281.75
2022-12-14T12:33:27.321Z,99287.66
2022-12-14T12:35:56.257Z,99286.75
2022-12-14T12:38:31.468Z,99283.41
2022-12-14T12:41:06.718Z,99280.50
2022-12-14T12:43:50.046Z,99282.03
2022-12-14T12:46:20.488Z,99268.88
2022-12-14T12:48:50.401Z,99269.78
2022-12-14T12:51:22.316Z,99260.88
2022-12-14T12:53:54.126Z,99266.16
2022-12-14T12:56:24.046Z,99260.28
2022-12-14T12:58:53.108Z,99254.72
2022-12-14T13:01:30.485Z,99254.03
2022-12-14T13:04:00.160Z,99248.22
2022-12-14T13:06:50.342Z,99253.66
2022-12-14T13:09:37.407Z,99251.75
2022-12-14T13:12:06.236Z,99243.13
2022-12-14T13:14:38.570Z,99245.25
2022-12-14T13:17:07.514Z,99248.69
2022-12-14T13:19:51.640Z,99244.94
2022-12-14T13:22:38.399Z,99257.00
2022-12-14T13:25:16.288Z,99242.41
2022-12-14T13:28:03.777Z,99239.44
2022-12-14T13:31:11.400Z,99241.56
2022-12-14T13:33:52.760Z,99234.00
2022-12-14T13:36:54.949Z,99233.00
2022-12-14T13:39:36.708Z,99231.28
2022-12-14T13:42:27.442Z,99228.22
2022-12-14T13:45:03.508Z,99223.72
2022-12-14T13:47:37.059Z,99214.31
2022-12-14T13:50:34.836Z,99213.44
2022-12-14T13:52:55.833Z,99216.28
2022-12-14T13:55:28.211Z,99218.25
2022-12-14T13:58:07.066Z,99211.97
2022-12-14T14:00:46.020Z,99208.59
2022-12-14T14:03:34.729Z,99205.56
2022-12-14T14:06:22.816Z,99199.84
2022-12-14T14:08:51.391Z,99203.53
2022-12-14T14:11:36.454Z,99199.75
2022-12-14T14:14:24.603Z,99199.44
2022-12-14T14:16:55.689Z,99193.69
2022-12-14T14:19:27.771Z,99191.72
2022-12-14T14:22:25.849Z,99187.78
2022-12-14T14:25:34.135Z,99181.50
2022-12-14T14:28:00.916Z,99185.00
2022-12-14T14:30:38.103Z,99185.97
2022-12-14T14:33:45.516Z,99180.75
2022-12-14T14:36:18.375Z,99177.69
2022-12-14T14:38:45.199Z,99182.75
2022-12-14T14:41:22.148Z,99172.66
2022-12-14T14:43:58.881Z,99168.53
2022-12-14T14:46:38.400Z,99171.91
2022-12-14T14:49:06.636Z,99171.00
2022-12-14T14:51:35.900Z,99162.19
2022-12-14T14:57:32.334Z,99155.47
2022-12-14T15:00:02.774Z,99150.56
2022-12-14T15:02:33.962Z,99154.78
2022-12-14T15:05:32.914Z,99141.22
2022-12-14T15:07:48.417Z,99143.00
2022-12-14T15:10:23.044Z,99145.97
2022-12-14T15:12:53.202Z,99131.00
2022-12-14T15:15:23.407Z,99129.88
2022-12-14T15:17:49.953Z,99120.66
2022-12-14T15:20:24.252Z,99118.63
2022-12-14T15:22:52.596Z,99116.88
2022-12-14T15:25:28.623Z,99109.44
2022-12-14T15:27:56.509Z,99107.78
2022-12-14T15:30:26.107Z,99102.75
2022-12-14T15:33:02.757Z,99098.00
2022-12-14T15:35:40.847Z,99105.56
2022-12-14T15:38:13.453Z,99102.34
2022-12-14T15:40:41.197Z,99101.22
2022-12-14T15:43:18.666Z,99097.28
2022-12-14T15:45:49.410Z,99096.31
2022-12-14T15:48:31.019Z,99094.91
2022-12-14T15:50:59.661Z,99086.38
2022-12-14T15:53:32.658Z,99081.19
2022-12-14T15:56:05.515Z,99087.34
2022-12-14T15:58:38.944Z,99093.09
2022-12-14T16:01:30.884Z,99078.50
2022-12-14T16:04:00.766Z,99076.88
2022-12-14T16:06:29.003Z,99068.94
2022-12-14T16:09:18.452Z,99062.06
2022-12-14T16:11:47.175Z,99064.66
2022-12-14T16:14:35.877Z,99072.19
2022-12-14T16:17:03.181Z,99064.44
2022-12-14T16:19:57.468Z,99065.56
2022-12-14T16:22:23.075Z,99063.03
2022-12-14T16:25:07.622Z,99055.91
2022-12-14T16:27:38.268Z,99054.38
2022-12-14T16:30:27.801Z,99059.56
2022-12-14T16:33:18.217Z,99057.09
2022-12-14T16:35:46.268Z,99051.31
2022-12-14T16:38:17.820Z,99046.75
2022-12-14T16:40:56.062Z,99041.50
2022-12-14T16:43:41.739Z,99045.84
2022-12-14T16:46:12.551Z,99046.75
2022-12-14T16:48:42.268Z,99039.97
2022-12-14T16:51:58.256Z,99031.59
2022-12-14T16:54:29.325Z,99021.50
2022-12-14T16:57:01.406Z,99019.06
2022-12-14T16:59:40.121Z,99014.94
2022-12-14T17:02:24.346Z,99021.97
2022-12-14T17:04:51.286Z,99010.06
2022-12-14T17:07:19.091Z,99018.28
2022-12-14T17:09:45.628Z,99014.81
2022-12-14T17:12:16.571Z,99016.47
2022-12-14T17:14:49.420Z,99009.75
2022-12-14T17:17:22.042Z,99001.25
2022-12-14T17:19:48.779Z,99004.53
2022-12-14T17:22:19.582Z,98998.31
2022-12-14T17:24:46.061Z,98991.16
2022-12-14T17:27:18.332Z,98986.97
2022-12-14T17:29:44.844Z,98976.91
2022-12-14T17:32:14.274Z,98977.53
2022-12-14T17:34:41.173Z,98972.84
2022-12-14T17:37:19.438Z,98975.50
2022-12-14T17:39:46.186Z,98961.66
2022-12-14T17:42:14.708Z,98957.03
2022-12-14T17:44:43.039Z,98954.44
2022-12-14T17:47:15.191Z,98943.00
2022-12-14T17:49:42.956Z,98942.72
2022-12-14T17:52:18.160Z,98951.09
2022-12-14T17:54:44.840Z,98942.50
2022-12-14T17:57:21.977Z,98946.13
2022-12-14T17:59:48.813Z,98928.19
2022-12-14T18:02:36.013Z,98926.28
2022-12-14T18:05:02.808Z,98921.84
2022-12-14T18:07:29.266Z,98922.78
2022-12-14T18:09:55.941Z,98919.59
2022-12-14T18:12:23.824Z,98914.19
2022-12-14T18:14:50.724Z,98913.44
2022-12-14T18:17:18.712Z,98914.03
2022-12-14T18:19:45.175Z,98918.50
2022-12-14T18:22:14.680Z,98908.09
2022-12-14T18:24:41.471Z,98913.50
2022-12-14T18:27:08.143Z,98917.78
2022-12-14T18:29:34.837Z,98914.31
2022-12-14T18:32:01.585Z,98912.50
2022-12-14T18:34:28.194Z,98913.50
2022-12-14T18:36:54.896Z,98925.22
2022-12-14T18:39:21.363Z,98914.25
2022-12-14T18:41:48.913Z,98907.88
2022-12-14T18:44:15.674Z,98905.44
2022-12-14T18:46:42.371Z,98898.56
2022-12-14T18:49:08.936Z,98895.84
2022-12-14T18:51:35.449Z,98889.81
2022-12-14T18:54:03.274Z,98888.16
2022-12-14T18:56:29.790Z,98888.81
2022-12-14T18:58:56.349Z,98889.97
2022-12-14T19:01:24.427Z,98891.72
2022-12-14T19:03:51.266Z,98876.34
2022-12-14T19:06:43.589Z,98887.28
2022-12-14T19:09:07.592Z,98879.22
2022-12-14T19:11:38.601Z,98880.06
2022-12-14T19:14:05.143Z,98884.41
2022-12-14T19:16:32.133Z,98888.13
2022-12-14T19:18:59.657Z,98892.16
2022-12-14T19:21:31.155Z,98887.88
2022-12-14T19:23:59.476Z,98885.22
2022-12-14T19:26:30.617Z,98887.00
2022-12-14T19:28:57.129Z,98889.66
2022-12-14T19:31:23.995Z,98891.41
2022-12-14T19:33:50.753Z,98888.75
2022-12-14T19:36:17.287Z,98880.13
2022-12-14T19:38:44.945Z,98882.41
2022-12-14T19:41:17.671Z,98889.47
2022-12-14T19:43:44.145Z,98883.25
2022-12-14T19:46:11.849Z,98883.47
2022-12-14T19:48:38.808Z,98876.47
2022-12-14T19:51:07.397Z,98874.47
2022-12-14T19:53:34.870Z,98878.28
2022-12-14T19:56:02.776Z,98877.59
2022-12-14T19:58:29.635Z,98878.28
2022-12-14T20:00:56.570Z,98877.53
2022-12-14T20:03:23.882Z,98875.59
2022-12-14T20:05:55.690Z,98856.88
2022-12-14T20:08:23.299Z,98862.38
2022-12-14T20:10:52.553Z,98848.75
2022-12-14T20:13:19.512Z,98853.75
2022-12-14T20:15:54.873Z,98849.59
2022-12-14T20:18:22.711Z,98840.06
2022-12-14T20:20:50.267Z,98839.00
2022-12-14T20:23:21.603Z,98824.97
2022-12-14T20:25:48.785Z,98813.03
2022-12-14T20:28:15.244Z,98819.78
2022-12-14T20:30:46.533Z,98818.09
2022-12-14T20:33:13.619Z,98823.28
2022-12-14T20:35:40.145Z,98812.03
2022-12-14T20:38:06.815Z,98819.63
2022-12-14T20:40:38.623Z,98828.81
2022-12-14T20:43:05.656Z,98825.28
2022-12-14T20:45:32.140Z,98826.13
2022-12-14T20:47:58.614Z,98823.53
2022-12-14T20:50:25.451Z,98825.28
2022-12-14T20:52:51.898Z,98812.25
2022-12-14T20:55:18.341Z,98798.38
2022-12-14T20:57:44.755Z,98801.91
2022-12-14T21:00:12.507Z,98796.72
2022-12-14T21:02:39.237Z,98796.56
2022-12-14T21:05:06.234Z,98784.34
2022-12-14T21:07:33.602Z,98779.84
2022-12-14T21:09:59.997Z,98775.34
2022-12-14T21:12:27.399Z,98770.16
2022-12-14T21:14:55.629Z,98765.66
2022-12-14T21:17:24.021Z,98777.25
2022-12-14T21:19:50.972Z,98761.56
2022-12-14T21:22:20.199Z,98756.19
2022-12-14T21:25:04.088Z,98759.88
2022-12-14T21:27:32.041Z,98763.78
2022-12-14T21:30:00.015Z,98757.78
2022-12-14T21:32:27.470Z,98761.19
2022-12-14T21:34:54.052Z,98761.63
2022-12-14T21:37:20.849Z,98754.22
2022-12-14T21:39:54.511Z,98752.72
2022-12-14T21:42:23.560Z,98746.13
2022-12-14T21:44:51.337Z,98749.28
2022-12-14T21:47:23.320Z,98737.00
2022-12-14T21:49:49.814Z,98730.13
2022-12-14T21:52:18.908Z,98730.44
2022-12-14T21:54:45.500Z,98731.09
2022-12-14T21:57:35.557Z,98716.25
2022-12-14T22:00:02.691Z,98727.34
2022-12-14T22:02:29.370Z,98722.63
2022-12-14T22:04:56.202Z,98723.28
2022-12-14T22:07:30.797Z,98719.91
2022-12-14T22:09:57.337Z,98711.38
2022-12-14T22:12:23.910Z,98708.38
2022-12-14T22:14:50.658Z,98710.06
2022-12-14T22:17:17.192Z,98710.22
2022-12-14T22:19:43.833Z,98708.91
2022-12-14T22:22:14.904Z,98706.88
2022-12-14T22:24:41.367Z,98708.09
2022-12-14T22:27:09.554Z,98708.56
2022-12-14T22:29:36.089Z,98703.72
2022-12-14T22:32:02.690Z,98699.63
2022-12-14T22:34:29.354Z,98691.84
2022-12-14T22:36:55.795Z,98689.09
2022-12-14T22:39:22.222Z,98691.50
2022-12-14T22:41:49.121Z,98693.34
2022-12-14T22:44:15.554Z,98695.88
2022-12-14T22:46:42.098Z,98686.88
2022-12-14T22:49:08.934Z,98684.59
2022-12-14T22:51:35.493Z,98685.34
2022-12-14T22:54:02.575Z,98677.03
2022-12-14T22:56:33.510Z,98669.72
2022-12-14T22:59:11.609Z,98666.66
2022-12-14T23:01:38.923Z,98662.44
2022-12-14T23:04:06.489Z,98653.25
2022-12-14T23:06:33.752Z,98658.91
2022-12-14T23:09:18.686Z,98651.13
2022-12-14T23:12:03.731Z,98652.63
2022-12-14T23:14:48.726Z,98643.19
2022-12-14T23:17:33.800Z,98644.31
2022-12-14T23:20:19.023Z,98635.97
2022-12-14T23:23:03.981Z,98643.47
2022-12-14T23:25:52.241Z,98637.47
2022-12-14T23:28:37.986Z,98629.75
2022-12-14T23:31:23.349Z,98629.81
2022-12-14T23:34:09.717Z,98626.31
2022-12-14T23:36:54.650Z,98618.91
2022-12-14T23:39:40.018Z,98614.56
2022-12-14T23:42:26.088Z,98614.75
2022-12-14T23:45:11.140Z,98624.03
2022-12-14T23:47:56.336Z,98622.44
2022-12-14T23:50:41.356Z,98616.25
2022-12-14T23:53:27.576Z,98610.13
2022-12-14T23:56:12.754Z,98616.78
2022-12-14T23:58:57.880Z,98613.38
